createdAt,value
2022-08-03T00:04:21.202Z,70.82
2022-08-03T00:09:35.993Z,69.74
2022-08-03T00:14:37.637Z,69.67
2022-08-03T00:19:39.281Z,69.20
2022-08-03T00:24:40.831Z,69.85
2022-08-03T00:29:59.670Z,69.61
2022-08-03T00:35:07.869Z,69.80
2022-08-03T00:40:12.555Z,70.62
2022-08-03T00:45:14.432Z,70.46
2022-08-03T00:50:17.298Z,71.64
2022-08-03T00:55:19.141Z,71.79
2022-08-03T01:00:23.667Z,72.45
2022-08-03T01:12:00.048Z,73.92
2022-08-03T01:17:16.472Z,74.56
2022-08-03T01:22:50.015Z,75.25
2022-08-03T01:28:39.051Z,75.64
2022-08-03T01:33:49.903Z,76.44
2022-08-03T01:38:56.279Z,77.11
2022-08-03T01:44:29.986Z,77.72
2022-08-03T01:49:21.350Z,78.66
2022-08-03T01:54:25.723Z,79.47
2022-08-03T01:59:29.174Z,79.34
2022-08-03T02:04:30.936Z,79.56
2022-08-03T02:09:35.030Z,80.20
2022-08-03T02:14:39.333Z,80.15
2022-08-03T02:19:42.774Z,80.24
2022-08-03T02:24:44.470Z,80.85
2022-08-03T02:30:02.696Z,80.64
2022-08-03T02:35:10.951Z,81.02
2022-08-03T02:40:14.920Z,81.17
2022-08-03T02:45:18.309Z,82.35
2022-08-03T02:50:21.946Z,83.27
2022-08-03T02:55:26.051Z,83.40
2022-08-03T03:00:28.738Z,83.49
2022-08-03T03:05:55.856Z,83.42
2022-08-03T03:11:00.548Z,84.42
2022-08-03T03:16:05.918Z,84.83
2022-08-03T03:21:09.889Z,85.21
2022-08-03T03:26:14.318Z,84.74
2022-08-03T03:31:16.141Z,84.28
2022-08-03T03:36:18.503Z,83.49
2022-08-03T03:41:20.310Z,83.68
2022-08-03T03:46:22.567Z,83.13
2022-08-03T03:51:24.127Z,82.40
2022-08-03T03:56:26.454Z,82.56
2022-08-03T04:01:28.693Z,82.69
2022-08-03T04:06:48.570Z,83.05
2022-08-03T04:11:54.964Z,83.25
2022-08-03T04:17:03.516Z,83.73
2022-08-03T04:22:14.249Z,83.84
2022-08-03T04:27:23.559Z,83.87
2022-08-03T04:32:28.776Z,83.91
2022-08-03T04:37:43.207Z,84.85
2022-08-03T04:42:46.094Z,85.13
2022-08-03T04:47:48.679Z,84.67
2022-08-03T04:52:50.267Z,82.85
2022-08-03T04:57:51.795Z,81.94
2022-08-03T05:02:54.303Z,82.06
2022-08-03T05:07:56.344Z,79.86
2022-08-03T05:12:57.878Z,78.92
2022-08-03T05:17:59.609Z,77.70
2022-08-03T05:23:01.953Z,76.12
2022-08-03T05:28:03.810Z,73.47
2022-08-03T05:33:05.458Z,72.13
2022-08-03T05:38:07.087Z,70.23
2022-08-03T05:43:10.964Z,68.53
2022-08-03T05:48:12.652Z,67.35
2022-08-03T05:53:14.257Z,66.83
2022-08-03T05:58:17.175Z,65.53
2022-08-03T06:03:20.022Z,65.72
2022-08-03T06:08:23.598Z,64.36
2022-08-03T06:13:25.175Z,63.34
2022-08-03T06:18:26.752Z,62.91
2022-08-03T06:23:54.830Z,61.48
2022-08-03T06:28:52.235Z,60.42
2022-08-03T06:34:34.754Z,59.06
2022-08-03T06:39:18.435Z,57.97
2022-08-03T06:44:20.192Z,57.10
2022-08-03T06:49:21.897Z,56.68
2022-08-03T06:54:24.435Z,55.53
2022-08-03T07:00:07.394Z,54.16
2022-08-03T07:04:50.512Z,54.39
2022-08-03T07:09:56.893Z,53.39
2022-08-03T07:15:02.651Z,53.37
2022-08-03T07:20:07.463Z,52.43
2022-08-03T07:25:09.450Z,51.08
2022-08-03T07:30:12.001Z,50.14
2022-08-03T07:35:22.753Z,50.14
2022-08-03T07:40:30.754Z,49.84
2022-08-03T07:45:34.086Z,50.03
2022-08-03T07:50:35.723Z,49.12
2022-08-03T07:55:37.346Z,48.37
2022-08-03T08:00:39.339Z,47.95
2022-08-03T08:05:40.927Z,47.13
2022-08-03T08:10:42.533Z,47.11
2022-08-03T08:16:00.939Z,47.60
2022-08-03T08:21:03.408Z,46.28
2022-08-03T08:26:05.021Z,45.75
2022-08-03T08:31:06.702Z,45.88
2022-08-03T08:36:10.951Z,44.98
2022-08-03T08:41:17.327Z,44.45
2022-08-03T08:46:23.799Z,44.65
2022-08-03T08:51:50.556Z,44.58
2022-08-03T08:56:56.039Z,44.08
2022-08-03T09:01:58.618Z,44.37
2022-08-03T09:07:19.205Z,43.44
2022-08-03T09:12:40.864Z,43.15
2022-08-03T09:17:46.396Z,42.99
2022-08-03T09:23:44.619Z,42.46
2022-08-03T09:29:00.005Z,42.04
2022-08-03T09:34:01.247Z,42.39
2022-08-03T09:39:10.936Z,41.48
2022-08-03T09:44:24.119Z,41.18
2022-08-03T09:49:26.477Z,41.28
2022-08-03T09:54:32.604Z,40.94
2022-08-03T09:59:34.689Z,40.44
2022-08-03T10:04:47.166Z,39.66
2022-08-03T10:10:29.587Z,39.31
2022-08-03T10:16:23.291Z,40.14
2022-08-03T10:20:56.489Z,38.29
2022-08-03T10:26:01.747Z,38.85
2022-08-03T10:31:07.638Z,38.12
2022-08-03T10:36:10.111Z,37.74
2022-08-03T10:41:12.818Z,37.86
2022-08-03T10:46:17.346Z,38.19
2022-08-03T10:51:19.719Z,38.25
2022-08-03T10:56:51.748Z,38.20
2022-08-03T11:01:58.525Z,38.33
2022-08-03T11:07:19.889Z,38.18
2022-08-03T11:12:33.290Z,38.18
2022-08-03T11:17:46.238Z,38.45
2022-08-03T11:22:59.559Z,37.47
2022-08-03T11:28:28.242Z,36.86
2022-08-03T11:33:30.544Z,37.39
2022-08-03T11:38:32.137Z,38.33
2022-08-03T11:43:37.657Z,37.89
2022-08-03T11:48:43.067Z,37.57
2022-08-03T11:53:47.700Z,37.28
2022-08-03T11:59:17.066Z,37.16
2022-08-03T12:04:16.280Z,37.07
2022-08-03T12:09:17.966Z,36.81
2022-08-03T12:14:49.909Z,36.27
2022-08-03T12:19:44.687Z,36.20
2022-08-03T12:24:47.899Z,36.23
2022-08-03T12:29:57.078Z,35.84
2022-08-03T12:35:01.894Z,36.03
2022-08-03T12:40:10.627Z,35.11
2022-08-03T12:45:25.910Z,35.69
2022-08-03T12:50:33.157Z,35.78
2022-08-03T12:55:57.708Z,35.69
2022-08-03T13:00:57.689Z,35.45
2022-08-03T13:05:59.283Z,35.51
2022-08-03T13:11:21.213Z,35.49
2022-08-03T13:16:23.233Z,35.60
2022-08-03T13:21:24.815Z,35.04
2022-08-03T13:26:26.369Z,34.80
2022-08-03T13:31:27.968Z,34.74
2022-08-03T13:36:52.871Z,34.73
2022-08-03T13:41:54.195Z,34.51
2022-08-03T13:46:55.842Z,34.78
2022-08-03T13:51:57.750Z,34.80
2022-08-03T13:58:11.591Z,34.70
2022-08-03T14:02:21.702Z,34.45
2022-08-03T14:07:23.340Z,34.41
2022-08-03T14:12:24.952Z,34.92
2022-08-03T14:17:26.490Z,34.61
2022-08-03T14:22:43.982Z,34.21
2022-08-03T14:27:45.598Z,34.58
2022-08-03T14:32:47.135Z,34.40
2022-08-03T14:37:48.721Z,34.50
2022-08-03T14:42:50.351Z,34.63
2022-08-03T14:50:30.253Z,34.14
2022-08-03T14:53:13.712Z,34.26
2022-08-03T14:58:19.647Z,34.43
2022-08-03T15:03:24.725Z,34.69
2022-08-03T15:08:26.635Z,34.63
2022-08-03T15:13:28.611Z,34.28
2022-08-03T15:18:30.362Z,34.29
2022-08-03T15:23:32.005Z,34.15
2022-08-03T15:28:33.567Z,34.38
2022-08-03T15:33:35.417Z,34.42
2022-08-03T15:38:37.059Z,34.22
2022-08-03T15:43:38.757Z,34.09
2022-08-03T15:48:41.279Z,34.25
2022-08-03T15:53:43.067Z,33.79
2022-08-03T15:59:04.173Z,33.99
2022-08-03T16:04:06.236Z,33.99
2022-08-03T16:09:24.069Z,34.16
2022-08-03T16:14:34.805Z,34.47
2022-08-03T16:19:42.056Z,34.03
2022-08-03T16:24:44.451Z,34.25
2022-08-03T16:29:46.068Z,34.27
2022-08-03T16:34:48.222Z,34.52
2022-08-03T16:39:49.894Z,34.40
2022-08-03T16:44:51.538Z,34.24
2022-08-03T16:49:56.274Z,34.92
2022-08-03T16:54:58.263Z,35.02
2022-08-03T17:00:00.212Z,34.77
2022-08-03T17:05:01.737Z,35.10
2022-08-03T17:10:04.498Z,35.15
2022-08-03T17:15:10.635Z,35.10
2022-08-03T17:20:15.031Z,35.31
2022-08-03T17:26:04.095Z,35.49
2022-08-03T17:30:58.431Z,35.20
2022-08-03T17:36:01.294Z,35.20
2022-08-03T17:41:10.558Z,35.37
2022-08-03T17:46:13.895Z,36.47
2022-08-03T17:51:46.238Z,35.86
2022-08-03T17:56:58.225Z,36.76
2022-08-03T18:02:30.666Z,36.13
2022-08-03T18:07:41.162Z,36.64
2022-08-03T18:13:11.050Z,36.79
2022-08-03T18:18:15.930Z,37.65
2022-08-03T18:23:24.940Z,38.28
2022-08-03T18:28:39.221Z,37.70
2022-08-03T18:34:20.337Z,38.43
2022-08-03T18:39:04.806Z,39.19
2022-08-03T18:44:09.637Z,39.04
2022-08-03T18:49:41.320Z,39.71
2022-08-03T18:55:09.345Z,40.22
2022-08-03T19:00:42.700Z,41.36
2022-08-03T19:06:02.803Z,42.18
2022-08-03T19:11:15.531Z,43.26
2022-08-03T19:16:39.405Z,44.38
2022-08-03T19:21:41.314Z,45.20
2022-08-03T19:26:42.881Z,45.73
2022-08-03T19:31:57.969Z,46.09
2022-08-03T19:37:02.529Z,47.20
2022-08-03T19:47:51.380Z,48.70
2022-08-03T19:52:54.089Z,49.56
2022-08-03T19:57:57.965Z,50.11
2022-08-03T20:03:02.609Z,51.16
2022-08-03T20:08:06.640Z,52.04
2022-08-03T20:13:13.146Z,53.08
2022-08-03T20:18:20.744Z,53.31
2022-08-03T20:23:26.429Z,53.65
2022-08-03T20:28:50.214Z,55.11
2022-08-03T20:33:52.274Z,54.92
2022-08-03T20:38:57.649Z,54.51
2022-08-03T20:44:00.976Z,55.92
2022-08-03T20:49:04.638Z,56.16
2022-08-03T20:54:09.861Z,55.91
2022-08-03T20:59:35.025Z,56.09
2022-08-03T21:04:49.090Z,56.02
2022-08-03T21:09:52.834Z,56.28
2022-08-03T21:13:02.803Z,47.88
2022-08-03T21:15:03.888Z,56.35
2022-08-03T21:20:07.906Z,55.66
2022-08-03T21:25:11.280Z,56.25
2022-08-03T21:30:13.123Z,56.74
2022-08-03T21:35:15.794Z,56.45
2022-08-03T21:40:17.508Z,56.78
2022-08-03T21:45:19.112Z,56.94
2022-08-03T21:50:21.060Z,57.44
2022-08-03T21:55:26.368Z,57.18
2022-08-03T22:00:28.150Z,56.90
2022-08-03T22:05:43.579Z,57.65
2022-08-03T22:10:47.403Z,57.30
2022-08-03T22:15:49.168Z,57.59
2022-08-03T22:20:52.264Z,57.88
2022-08-03T22:25:56.491Z,57.50
2022-08-03T22:31:00.102Z,57.38
2022-08-03T22:36:24.038Z,57.70
2022-08-03T22:41:29.477Z,56.57
2022-08-03T22:46:33.864Z,57.42
2022-08-03T22:51:36.151Z,57.47
2022-08-03T22:56:41.328Z,58.66
2022-08-03T23:01:44.437Z,59.27
2022-08-03T23:06:50.615Z,60.18
2022-08-03T23:11:55.269Z,60.68
2022-08-03T23:17:02.775Z,61.28
2022-08-03T23:22:05.844Z,62.10
2022-08-03T23:27:08.542Z,62.95
2022-08-03T23:32:10.483Z,63.93
2022-08-03T23:37:15.084Z,64.95
2022-08-03T23:42:18.690Z,64.94
2022-08-03T23:47:20.468Z,65.72
2022-08-03T23:52:46.160Z,67.12
2022-08-03T23:58:04.007Z,67.03
